createdAt,value
2022-11-24T00:01:18.711Z,6.79
2022-11-24T00:03:54.589Z,6.82
2022-11-24T00:06:22.887Z,6.75
2022-11-24T00:08:50.977Z,6.72
2022-11-24T00:11:23.044Z,6.82
2022-11-24T00:13:50.860Z,6.69
2022-11-24T00:16:21.707Z,6.71
2022-11-24T00:18:50.610Z,6.81
2022-11-24T00:21:19.207Z,6.86
2022-11-24T00:23:48.372Z,6.89
2022-11-24T00:26:21.376Z,6.82
2022-11-24T00:28:50.805Z,6.86
2022-11-24T00:31:23.590Z,6.87
2022-11-24T00:33:53.386Z,6.77
2022-11-24T00:36:22.320Z,6.65
2022-11-24T00:38:54.363Z,6.84
2022-11-24T00:41:23.938Z,6.83
2022-11-24T00:43:52.248Z,6.86
2022-11-24T00:46:20.695Z,6.55
2022-11-24T00:48:48.913Z,6.70
2022-11-24T00:51:17.806Z,6.79
2022-11-24T00:53:45.523Z,6.83
2022-11-24T00:56:13.701Z,6.82
2022-11-24T00:58:41.385Z,6.71
2022-11-24T01:01:15.097Z,6.71
2022-11-24T01:03:43.834Z,6.90
2022-11-24T01:06:19.522Z,6.99
2022-11-24T01:08:47.814Z,6.97
2022-11-24T01:11:29.350Z,6.88
2022-11-24T01:13:59.422Z,6.84
2022-11-24T01:16:32.354Z,6.86
2022-11-24T01:19:00.632Z,6.96
2022-11-24T01:21:28.287Z,6.99
2022-11-24T01:23:55.937Z,6.95
2022-11-24T01:26:23.874Z,6.68
2022-11-24T01:28:56.240Z,6.74
2022-11-24T01:31:25.312Z,6.83
2022-11-24T01:33:53.472Z,6.89
2022-11-24T01:36:21.723Z,6.95
2022-11-24T01:38:49.955Z,7.03
2022-11-24T01:41:19.722Z,7.08
2022-11-24T01:43:48.219Z,6.99
2022-11-24T01:46:31.577Z,6.85
2022-11-24T01:49:13.047Z,6.91
2022-11-24T01:51:45.132Z,7.01
2022-11-24T01:54:16.247Z,6.92
2022-11-24T01:56:46.602Z,7.26
2022-11-24T01:59:15.574Z,7.04
2022-11-24T02:01:43.462Z,7.04
2022-11-24T02:04:13.249Z,7.05
2022-11-24T02:06:42.418Z,6.89
2022-11-24T02:09:17.290Z,7.08
2022-11-24T02:11:46.408Z,7.14
2022-11-24T02:14:16.056Z,6.95
2022-11-24T02:16:48.338Z,6.95
2022-11-24T02:19:31.204Z,6.82
2022-11-24T02:21:58.819Z,7.04
2022-11-24T02:24:52.621Z,6.99
2022-11-24T02:27:20.334Z,7.10
2022-11-24T02:29:50.204Z,7.02
2022-11-24T02:32:18.791Z,7.08
2022-11-24T02:34:46.441Z,7.07
2022-11-24T02:37:14.282Z,6.92
2022-11-24T02:39:41.949Z,6.90
2022-11-24T02:42:11.642Z,6.84
2022-11-24T02:44:44.036Z,7.04
2022-11-24T02:47:13.526Z,6.95
2022-11-24T02:49:42.044Z,7.12
2022-11-24T02:52:10.057Z,6.96
2022-11-24T02:54:37.848Z,7.07
2022-11-24T02:57:06.084Z,7.05
2022-11-24T02:59:33.804Z,7.02
2022-11-24T03:02:01.558Z,6.85
2022-11-24T03:04:30.101Z,7.00
2022-11-24T03:06:57.729Z,6.96
2022-11-24T03:09:26.104Z,7.01
2022-11-24T03:11:54.055Z,6.81
2022-11-24T03:14:21.820Z,7.14
2022-11-24T03:16:49.419Z,7.21
2022-11-24T03:19:17.378Z,7.28
2022-11-24T03:21:45.274Z,7.02
2022-11-24T03:24:12.997Z,7.02
2022-11-24T03:26:41.130Z,7.12
2022-11-24T03:29:09.230Z,7.07
2022-11-24T03:31:37.252Z,6.97
2022-11-24T03:34:09.934Z,7.06
2022-11-24T03:36:37.561Z,7.24
2022-11-24T03:39:05.423Z,7.11
2022-11-24T03:41:33.382Z,6.98
2022-11-24T03:44:01.701Z,6.97
2022-11-24T03:46:30.063Z,7.12
2022-11-24T03:48:58.006Z,6.87
2022-11-24T03:51:25.824Z,7.03
2022-11-24T03:53:53.694Z,6.99
2022-11-24T03:56:21.599Z,6.52
2022-11-24T03:58:49.289Z,6.83
2022-11-24T04:01:17.329Z,6.90
2022-11-24T04:03:46.094Z,6.66
2022-11-24T04:06:13.604Z,6.56
2022-11-24T04:08:41.218Z,6.50
2022-11-24T04:11:09.321Z,6.62
2022-11-24T04:13:36.968Z,6.69
2022-11-24T04:16:08.060Z,6.87
2022-11-24T04:18:35.978Z,6.54
2022-11-24T04:21:04.086Z,6.51
2022-11-24T04:23:31.915Z,6.57
2022-11-24T04:25:59.751Z,6.42
2022-11-24T04:28:27.630Z,6.69
2022-11-24T04:30:55.239Z,6.57
2022-11-24T04:33:23.152Z,6.55
2022-11-24T04:35:53.746Z,6.35
2022-11-24T04:39:20.002Z,6.55
2022-11-24T04:41:09.886Z,6.66
2022-11-24T04:43:40.765Z,6.37
2022-11-24T04:46:10.978Z,6.34
2022-11-24T04:48:39.290Z,6.37
2022-11-24T04:51:08.640Z,6.29
2022-11-24T04:53:36.529Z,6.39
2022-11-24T04:56:05.633Z,6.55
2022-11-24T04:58:33.563Z,6.28
2022-11-24T05:01:01.508Z,6.44
2022-11-24T05:03:29.190Z,6.40
2022-11-24T05:05:58.927Z,6.33
2022-11-24T05:08:26.830Z,6.27
2022-11-24T05:10:55.556Z,6.43
2022-11-24T05:13:23.215Z,6.50
2022-11-24T05:15:51.135Z,6.46
2022-11-24T05:18:18.973Z,6.44
2022-11-24T05:20:46.539Z,6.60
2022-11-24T05:23:14.568Z,6.54
2022-11-24T05:25:47.326Z,6.45
2022-11-24T05:28:17.432Z,6.24
2022-11-24T05:30:45.657Z,6.24
2022-11-24T05:33:15.927Z,6.25
2022-11-24T05:35:43.739Z,6.05
2022-11-24T05:38:11.715Z,5.94
2022-11-24T05:40:39.325Z,6.00
2022-11-24T05:43:11.762Z,6.05
2022-11-24T05:45:39.308Z,5.96
2022-11-24T05:48:09.143Z,6.19
2022-11-24T05:50:44.605Z,5.80
2022-11-24T05:53:13.155Z,5.65
2022-11-24T05:55:40.931Z,5.94
2022-11-24T05:58:10.034Z,6.20
2022-11-24T06:00:37.971Z,5.92
2022-11-24T06:03:06.062Z,6.04
2022-11-24T06:05:33.803Z,6.21
2022-11-24T06:08:01.481Z,6.25
2022-11-24T06:10:29.453Z,6.26
2022-11-24T06:12:57.117Z,6.30
2022-11-24T06:15:24.698Z,6.23
2022-11-24T06:17:54.454Z,5.98
2022-11-24T06:20:25.974Z,6.11
2022-11-24T06:23:00.457Z,6.00
2022-11-24T06:25:29.067Z,5.88
2022-11-24T06:27:57.275Z,6.24
2022-11-24T06:30:25.281Z,6.04
2022-11-24T06:32:56.013Z,6.13
2022-11-24T06:35:23.935Z,6.17
2022-11-24T06:37:51.748Z,6.18
2022-11-24T06:40:19.582Z,6.15
2022-11-24T06:42:51.020Z,5.93
2022-11-24T06:45:18.678Z,6.06
2022-11-24T06:47:46.533Z,6.21
2022-11-24T06:50:14.414Z,6.19
2022-11-24T06:52:42.125Z,6.03
2022-11-24T06:55:09.885Z,5.96
2022-11-24T06:57:37.954Z,5.84
2022-11-24T07:00:06.715Z,6.00
2022-11-24T07:02:34.427Z,6.12
2022-11-24T07:05:02.471Z,6.17
2022-11-24T07:07:30.139Z,6.27
2022-11-24T07:09:57.916Z,6.09
2022-11-24T07:12:25.838Z,6.17
2022-11-24T07:14:53.458Z,6.15
2022-11-24T07:17:21.090Z,6.22
2022-11-24T07:19:49.407Z,6.13
2022-11-24T07:22:17.130Z,6.34
2022-11-24T07:24:45.020Z,6.25
2022-11-24T07:27:13.061Z,6.45
2022-11-24T07:29:41.000Z,6.47
2022-11-24T07:32:08.710Z,6.25
2022-11-24T07:34:37.139Z,6.18
2022-11-24T07:37:04.920Z,6.56
2022-11-24T07:39:32.600Z,6.17
2022-11-24T07:42:00.581Z,6.15
2022-11-24T07:44:28.202Z,6.58
2022-11-24T07:46:55.862Z,6.51
2022-11-24T07:49:23.674Z,6.47
2022-11-24T07:51:51.335Z,6.38
2022-11-24T07:54:18.984Z,6.56
2022-11-24T07:56:49.678Z,6.68
2022-11-24T07:59:17.433Z,6.80
2022-11-24T08:01:45.100Z,6.44
2022-11-24T08:04:13.306Z,6.49
2022-11-24T08:06:44.620Z,6.20
2022-11-24T08:09:15.130Z,6.30
2022-11-24T08:11:42.689Z,6.35
2022-11-24T08:14:10.349Z,6.64
2022-11-24T08:16:38.223Z,6.62
2022-11-24T08:19:05.911Z,6.43
2022-11-24T08:21:33.508Z,6.22
2022-11-24T08:24:01.451Z,6.48
2022-11-24T08:26:29.286Z,6.43
2022-11-24T08:28:58.106Z,6.43
2022-11-24T08:31:27.853Z,6.47
2022-11-24T08:33:56.114Z,6.31
2022-11-24T08:36:23.672Z,6.58
2022-11-24T08:38:56.571Z,6.80
2022-11-24T08:41:25.077Z,6.45
2022-11-24T08:43:54.067Z,6.55
2022-11-24T08:46:24.183Z,6.91
2022-11-24T08:48:53.591Z,6.67
2022-11-24T08:51:26.583Z,6.61
2022-11-24T08:53:55.966Z,6.58
2022-11-24T08:56:25.119Z,6.81
2022-11-24T08:58:53.735Z,6.61
2022-11-24T09:01:22.640Z,6.55
2022-11-24T09:03:51.497Z,6.75
2022-11-24T09:06:22.049Z,6.80
2022-11-24T09:08:50.164Z,6.84
2022-11-24T09:11:18.450Z,6.62
2022-11-24T09:13:46.172Z,6.73
2022-11-24T09:16:19.654Z,6.66
2022-11-24T09:18:48.117Z,6.92
2022-11-24T09:21:18.579Z,7.08
2022-11-24T09:23:48.899Z,6.80
2022-11-24T09:26:47.724Z,6.81
2022-11-24T09:29:15.622Z,6.49
2022-11-24T09:31:43.524Z,7.13
2022-11-24T09:34:14.032Z,7.09
2022-11-24T09:36:42.164Z,6.76
2022-11-24T09:39:11.335Z,6.98
2022-11-24T09:41:54.543Z,7.10
2022-11-24T09:45:06.665Z,7.33
2022-11-24T09:47:43.870Z,7.24
2022-11-24T09:50:23.858Z,7.30
2022-11-24T09:53:12.756Z,7.20
2022-11-24T09:55:47.473Z,6.82
2022-11-24T09:58:27.078Z,7.14
2022-11-24T10:00:56.247Z,7.22
2022-11-24T10:03:35.378Z,7.02
2022-11-24T10:06:16.779Z,7.47
2022-11-24T10:08:54.123Z,7.33
2022-11-24T10:11:33.052Z,6.85
2022-11-24T10:14:19.345Z,7.29
2022-11-24T10:16:59.951Z,7.03
2022-11-24T10:19:45.642Z,7.25
2022-11-24T10:22:35.156Z,7.70
2022-11-24T10:25:05.599Z,7.81
2022-11-24T10:27:46.868Z,7.75
2022-11-24T10:30:20.946Z,7.57
2022-11-24T10:32:52.588Z,8.06
2022-11-24T10:35:23.466Z,7.97
2022-11-24T10:38:06.243Z,8.28
2022-11-24T10:43:27.422Z,8.39
2022-11-24T10:46:11.894Z,8.35
2022-11-24T10:48:57.566Z,8.25
2022-11-24T10:51:44.245Z,8.13
2022-11-24T10:54:18.262Z,8.35
2022-11-24T10:56:47.684Z,8.27
2022-11-24T10:59:36.922Z,8.31
2022-11-24T11:02:28.303Z,8.41
2022-11-24T11:04:55.947Z,8.27
2022-11-24T11:07:25.613Z,8.52
2022-11-24T11:10:20.398Z,8.24
2022-11-24T11:12:48.582Z,8.10
2022-11-24T11:15:25.639Z,8.23
2022-11-24T11:17:57.642Z,8.33
2022-11-24T11:20:31.546Z,8.44
2022-11-24T11:23:03.163Z,8.21
2022-11-24T11:25:30.564Z,8.40
2022-11-24T11:28:29.651Z,8.18
2022-11-24T11:31:18.991Z,8.56
2022-11-24T11:34:09.542Z,8.30
2022-11-24T11:36:52.958Z,8.68
2022-11-24T11:39:29.224Z,8.31
2022-11-24T11:42:03.024Z,8.64
2022-11-24T11:44:46.315Z,8.52
2022-11-24T11:47:35.750Z,8.28
2022-11-24T11:50:03.545Z,8.23
2022-11-24T11:52:50.334Z,8.37
2022-11-24T11:55:49.706Z,8.31
2022-11-24T11:58:44.759Z,8.61
2022-11-24T12:01:15.429Z,8.91
2022-11-24T12:04:01.731Z,8.77
2022-11-24T12:06:36.043Z,8.42
2022-11-24T12:09:20.702Z,8.15
2022-11-24T12:11:52.602Z,8.56
2022-11-24T12:14:28.797Z,8.53
2022-11-24T12:17:20.775Z,8.11
2022-11-24T12:20:10.186Z,8.16
2022-11-24T12:22:47.142Z,8.41
2022-11-24T12:25:56.541Z,7.95
2022-11-24T12:28:32.813Z,8.19
2022-11-24T12:31:08.735Z,7.95
2022-11-24T12:33:52.342Z,8.61
2022-11-24T12:36:34.250Z,8.23
2022-11-24T12:39:06.581Z,8.27
2022-11-24T12:41:56.445Z,8.32
2022-11-24T12:44:32.803Z,8.42
2022-11-24T12:47:22.885Z,8.29
2022-11-24T12:50:07.426Z,7.97
2022-11-24T12:52:49.598Z,8.26
2022-11-24T12:55:22.336Z,9.19
2022-11-24T12:57:53.848Z,9.29
2022-11-24T13:00:24.059Z,9.59
2022-11-24T13:02:55.131Z,9.93
2022-11-24T13:05:34.767Z,9.81
2022-11-24T13:08:04.759Z,9.73
2022-11-24T13:13:28.249Z,9.79
2022-11-24T13:19:00.981Z,9.79
2022-11-24T13:21:41.233Z,9.62
2022-11-24T13:24:19.489Z,9.56
2022-11-24T13:26:53.597Z,9.92
2022-11-24T13:29:25.473Z,9.68
2022-11-24T13:32:02.190Z,9.16
2022-11-24T13:34:38.840Z,8.92
2022-11-24T13:37:31.208Z,8.95
2022-11-24T13:40:23.591Z,8.97
2022-11-24T13:42:56.958Z,8.42
2022-11-24T13:45:40.463Z,8.35
2022-11-24T13:48:21.367Z,8.56
2022-11-24T13:50:49.989Z,8.37
2022-11-24T13:53:31.583Z,8.00
2022-11-24T13:56:03.288Z,7.97
2022-11-24T13:58:32.025Z,8.24
2022-11-24T14:01:09.026Z,8.21
2022-11-24T14:04:33.271Z,8.07
2022-11-24T14:07:09.492Z,8.27
2022-11-24T14:09:42.120Z,8.01
2022-11-24T14:12:24.094Z,7.98
2022-11-24T14:14:53.623Z,8.02
2022-11-24T14:17:26.114Z,7.77
2022-11-24T14:19:56.124Z,7.91
2022-11-24T14:22:32.808Z,7.64
2022-11-24T14:25:01.444Z,7.58
2022-11-24T14:27:37.442Z,7.74
2022-11-24T14:30:08.323Z,7.88
2022-11-24T14:32:36.597Z,7.63
2022-11-24T14:35:30.365Z,7.62
2022-11-24T14:38:00.096Z,7.45
2022-11-24T14:40:51.484Z,7.40
2022-11-24T14:43:19.262Z,7.58
2022-11-24T14:45:59.552Z,7.55
2022-11-24T14:48:32.859Z,7.55
2022-11-24T14:51:29.540Z,7.58
2022-11-24T14:54:00.412Z,7.62
2022-11-24T14:56:36.221Z,7.44
2022-11-24T14:59:26.413Z,7.31
2022-11-24T15:01:54.463Z,7.51
2022-11-24T15:07:22.968Z,7.58
2022-11-24T15:09:56.324Z,7.46
2022-11-24T15:12:28.390Z,7.65
2022-11-24T15:14:58.853Z,7.48
2022-11-24T15:17:28.277Z,7.41
2022-11-24T15:20:09.009Z,7.53
2022-11-24T15:22:38.593Z,7.43
2022-11-24T15:25:30.004Z,7.52
2022-11-24T15:27:57.778Z,7.74
2022-11-24T15:30:28.761Z,7.52
2022-11-24T15:32:58.087Z,7.29
2022-11-24T15:35:29.088Z,7.39
2022-11-24T15:37:56.807Z,7.41
2022-11-24T15:40:24.514Z,7.44
2022-11-24T15:42:54.631Z,7.37
2022-11-24T15:45:24.411Z,7.55
2022-11-24T15:47:52.727Z,7.54
2022-11-24T15:50:20.804Z,7.69
2022-11-24T15:52:51.795Z,7.44
2022-11-24T15:55:21.517Z,7.46
2022-11-24T15:57:49.472Z,7.37
2022-11-24T16:00:22.687Z,7.45
2022-11-24T16:02:50.650Z,7.26
2022-11-24T16:05:18.415Z,7.59
2022-11-24T16:07:46.227Z,7.59
2022-11-24T16:10:28.653Z,7.36
2022-11-24T16:12:56.319Z,7.54
2022-11-24T16:15:24.259Z,7.40
2022-11-24T16:17:51.977Z,7.51
2022-11-24T16:20:19.623Z,7.41
2022-11-24T16:22:47.649Z,7.28
2022-11-24T16:25:15.352Z,6.60
2022-11-24T16:27:43.164Z,6.09
2022-11-24T16:30:13.183Z,6.06
2022-11-24T16:32:40.751Z,6.18
2022-11-24T16:35:08.697Z,6.29
2022-11-24T16:37:36.832Z,6.07
2022-11-24T16:40:05.506Z,5.99
2022-11-24T16:42:33.488Z,6.07
2022-11-24T16:45:01.433Z,6.10
2022-11-24T16:47:29.410Z,5.83
2022-11-24T16:50:05.026Z,5.76
2022-11-24T16:52:33.437Z,5.72
2022-11-24T16:55:01.036Z,6.56
2022-11-24T16:57:28.788Z,6.56
2022-11-24T16:59:58.377Z,6.61
2022-11-24T17:02:26.249Z,6.69
2022-11-24T17:04:53.972Z,6.58
2022-11-24T17:07:21.914Z,6.39
2022-11-24T17:09:49.939Z,6.43
2022-11-24T17:12:19.714Z,6.54
2022-11-24T17:15:09.472Z,6.61
2022-11-24T17:17:35.427Z,6.41
2022-11-24T17:20:03.746Z,6.35
2022-11-24T17:22:31.859Z,6.49
2022-11-24T17:24:59.520Z,6.41
2022-11-24T17:27:27.922Z,5.85
2022-11-24T17:29:56.387Z,5.40
2022-11-24T17:32:24.025Z,5.07
2022-11-24T17:34:52.106Z,5.30
2022-11-24T17:37:19.951Z,5.49
2022-11-24T17:40:05.937Z,5.01
2022-11-24T17:42:37.208Z,5.35
2022-11-24T17:45:05.111Z,5.19
2022-11-24T17:47:33.246Z,5.72
2022-11-24T17:50:01.246Z,5.40
2022-11-24T17:52:29.797Z,5.26
2022-11-24T17:54:58.989Z,5.19
2022-11-24T17:57:27.342Z,5.23
2022-11-24T17:59:55.177Z,5.60
2022-11-24T18:02:23.267Z,5.66
2022-11-24T18:04:51.643Z,5.52
2022-11-24T18:07:19.529Z,5.69
2022-11-24T18:09:47.531Z,5.53
2022-11-24T18:12:15.639Z,5.66
2022-11-24T18:14:43.528Z,5.63
2022-11-24T18:17:11.541Z,5.69
2022-11-24T18:19:43.423Z,5.61
2022-11-24T18:22:11.416Z,5.62
2022-11-24T18:24:39.791Z,5.55
2022-11-24T18:31:57.341Z,5.40
2022-11-24T18:34:40.529Z,5.44
2022-11-24T18:37:08.896Z,5.40
2022-11-24T18:39:36.886Z,5.52
2022-11-24T18:42:04.523Z,5.44
2022-11-24T18:44:32.885Z,5.54
2022-11-24T18:47:01.877Z,5.55
2022-11-24T18:49:30.175Z,5.49
2022-11-24T18:51:59.395Z,5.32
2022-11-24T18:54:27.890Z,5.22
2022-11-24T18:57:00.204Z,5.32
2022-11-24T18:59:31.362Z,5.29
2022-11-24T19:01:59.399Z,5.20
2022-11-24T19:04:27.295Z,5.23
2022-11-24T19:06:55.901Z,5.12
2022-11-24T19:09:24.121Z,5.19
2022-11-24T19:11:52.382Z,5.18
2022-11-24T19:14:20.500Z,4.65
2022-11-24T19:16:49.030Z,4.55
2022-11-24T19:19:17.508Z,4.52
2022-11-24T19:21:46.045Z,4.94
2022-11-24T19:24:14.992Z,4.97
2022-11-24T19:26:42.822Z,5.07
2022-11-24T19:29:11.222Z,4.93
2022-11-24T19:31:39.305Z,4.95
2022-11-24T19:34:07.320Z,5.04
2022-11-24T19:36:36.161Z,4.90
2022-11-24T19:39:04.514Z,4.87
2022-11-24T19:41:33.189Z,4.51
2022-11-24T19:44:01.655Z,4.77
2022-11-24T19:46:30.050Z,4.95
2022-11-24T19:49:01.962Z,4.88
2022-11-24T19:51:35.109Z,4.81
2022-11-24T19:54:04.518Z,4.93
2022-11-24T19:56:35.340Z,4.92
2022-11-24T19:59:04.507Z,4.90
2022-11-24T20:01:40.348Z,4.88
2022-11-24T20:04:13.074Z,4.87
2022-11-24T20:06:43.014Z,4.45
2022-11-24T20:09:13.999Z,4.68
2022-11-24T20:11:41.939Z,4.54
2022-11-24T20:14:12.172Z,4.73
2022-11-24T20:16:41.565Z,4.76
2022-11-24T20:19:15.935Z,4.54
2022-11-24T20:21:47.311Z,4.21
2022-11-24T20:24:17.937Z,4.53
2022-11-24T20:26:48.702Z,4.74
2022-11-24T20:29:16.955Z,4.42
2022-11-24T20:31:47.017Z,4.75
2022-11-24T20:34:16.342Z,4.40
2022-11-24T20:36:45.794Z,4.44
2022-11-24T20:39:17.946Z,4.40
2022-11-24T20:41:46.284Z,4.22
2022-11-24T20:44:16.071Z,3.97
2022-11-24T20:46:44.954Z,4.42
2022-11-24T20:49:18.554Z,4.53
2022-11-24T20:51:46.663Z,4.46
2022-11-24T20:54:16.423Z,4.60
2022-11-24T20:56:45.865Z,4.04
2022-11-24T20:59:15.851Z,3.89
2022-11-24T21:01:45.805Z,4.12
2022-11-24T21:04:16.984Z,4.08
2022-11-24T21:06:44.993Z,4.02
2022-11-24T21:09:12.920Z,3.86
2022-11-24T21:11:40.716Z,4.34
2022-11-24T21:14:09.487Z,4.43
2022-11-24T21:16:39.336Z,4.47
2022-11-24T21:19:09.888Z,4.39
2022-11-24T21:21:41.768Z,4.43
2022-11-24T21:24:15.243Z,4.05
2022-11-24T21:26:44.586Z,4.29
2022-11-24T21:29:12.932Z,4.33
2022-11-24T21:31:41.172Z,4.12
2022-11-24T21:34:09.497Z,4.33
2022-11-24T21:36:37.190Z,4.44
2022-11-24T21:39:04.864Z,3.97
2022-11-24T21:41:33.639Z,3.83
2022-11-24T21:44:01.199Z,3.99
2022-11-24T21:46:29.512Z,4.29
2022-11-24T21:48:57.588Z,4.32
2022-11-24T21:51:25.545Z,4.17
2022-11-24T21:53:53.637Z,3.91
2022-11-24T21:56:22.915Z,4.24
2022-11-24T21:58:55.573Z,4.22
2022-11-24T22:01:26.605Z,3.88
2022-11-24T22:03:55.119Z,3.87
2022-11-24T22:06:23.388Z,3.82
2022-11-24T22:08:51.014Z,3.82
2022-11-24T22:11:23.922Z,3.77
2022-11-24T22:13:52.274Z,3.74
2022-11-24T22:16:22.337Z,3.67
2022-11-24T22:18:50.456Z,3.56
2022-11-24T22:21:24.821Z,3.53
2022-11-24T22:23:52.971Z,3.37
2022-11-24T22:26:23.065Z,3.23
2022-11-24T22:28:50.972Z,3.05
2022-11-24T22:31:21.491Z,3.27
2022-11-24T22:33:49.862Z,3.24
2022-11-24T22:36:18.857Z,3.83
2022-11-24T22:38:47.264Z,3.88
2022-11-24T22:41:17.092Z,3.89
2022-11-24T22:43:45.932Z,3.77
2022-11-24T22:46:16.139Z,3.68
2022-11-24T22:48:45.777Z,3.02
2022-11-24T22:51:18.534Z,3.79
2022-11-24T22:53:47.827Z,3.89
2022-11-24T22:56:16.311Z,3.54
2022-11-24T22:58:44.012Z,3.49
2022-11-24T23:01:14.582Z,3.72
2022-11-24T23:03:42.880Z,4.03
2022-11-24T23:06:12.819Z,3.99
2022-11-24T23:08:41.322Z,3.93
2022-11-24T23:11:19.095Z,3.81
2022-11-24T23:13:46.992Z,3.42
2022-11-24T23:16:16.553Z,3.15
2022-11-24T23:18:48.778Z,3.40
2022-11-24T23:21:24.666Z,3.66
2022-11-24T23:23:52.990Z,3.52
2022-11-24T23:26:23.546Z,3.57
2022-11-24T23:28:51.394Z,3.08
2022-11-24T23:31:21.964Z,3.12
2022-11-24T23:33:50.220Z,3.48
2022-11-24T23:36:19.268Z,3.02
2022-11-24T23:38:47.622Z,3.33
2022-11-24T23:41:24.338Z,3.54
2022-11-24T23:43:52.669Z,3.14
2022-11-24T23:46:22.753Z,2.68
2022-11-24T23:48:51.956Z,2.57
2022-11-24T23:51:22.644Z,2.56
2022-11-24T23:53:50.956Z,2.65
2022-11-24T23:56:21.248Z,2.57
2022-11-24T23:58:49.282Z,2.59
